Airfield :
LOGIN :

Register | Disclaimer

   EN    FR    IT 

 










Legend :    VFR   Marginal VFR   IFR   Intensive IFR   Very Intensive IFR
Visi :
Ceiling :
>= 8 km
>= 3000ft
5 to 8 km
1000 to 3000 ft
1500m to 5 km
500 to 1000 ft
800 to 1500m
200 to 500 ft
< 800m
< 200 ft
Symbols :   Thunderstorms  Fog  Heavy snow  Heavy precipitations  Wind > 20 kt
SIGMETs :     Misc.  Thunderstorms  Icing  Turbulence  Mountain Waves  Volcanic Ashes






- Airport Elevation : 503 ft
- IATA code : BLE


ESSD - Borlange

CURRENT METAR :
  • 250220Z AUTO 26004KT 1400 R32/P2000N FG SCT031/// OVC074/// 06/06 Q1020

EXPIRED METARs :
  • 250150Z AUTO 26003KT 0200 R32/0650N FG FEW004/// BKN074/// 06/06 Q1020
  • 250120Z AUTO 27003KT 0250 R32/1100U FG VV002 07/07 Q1019
  • 250050Z AUTO 26002KT 0150 R32/0650N FG VV001 06/06 Q1019
  • 250020Z AUTO 26003KT 0300 R32/P2000N SCT016/// BKN019/// 06/06 Q1018
  • 242350Z AUTO 28002KT 9999 FG FEW062/// 06/06 Q1018

Expired Forecast.



MET'MAP, your aeronautical weather chart ! - Copyright ORBIFLY December 2007 - Disclaimer

ORBIFLY MET'MAP TEAM :

Programming & Development : Alexandra Zaïnal
Concept & original design : Baudouin d'Aumeries
Assistance for programming : Marc-Olivier Méhu
Technical & hardware support : Manuel Goepfert

Contact : metmap@orbifly.com




SOURCES & CREDITS :

   NOAA